Time;durP1;ratioP1;P1;durP2;ratioP2;P2;SDS_P1;SDS_P2;PMS_P1;PMS_P2;Temp;Humidity;BMP_temperature;BMP_pressure;BME280_temperature;BME280_humidity;BME280_pressure;Samples;Min_cycle;Max_cycle;Signal;HPM_P1;HPM_P2
2023/06/01 00:02:11;;;;;;;;;21.00;19.67;;;;;16.88;68.59;101933.75;5080847;27;45370;-74
2023/06/01 00:04:40;;;;;;;;;21.33;17.33;;;;;16.81;69.00;101927.72;5080988;27;45441;-74
2023/06/01 00:07:10;;;;;;;;;30.67;22.67;;;;;16.78;69.50;101921.63;5080871;27;45303;-75
2023/06/01 00:09:36;;;;;;;;;23.00;21.33;;;;;16.84;69.65;101934.72;5080148;27;46536;-74
2023/06/01 00:12:02;;;;;;;;;19.00;19.00;;;;;16.81;69.53;101924.19;5080563;28;45413;-76
2023/06/01 00:14:27;;;;;;;;;21.67;21.00;;;;;16.74;69.67;101926.16;5080676;27;45252;-74
2023/06/01 00:16:53;;;;;;;;;26.33;19.33;;;;;16.68;69.94;101918.34;5080736;28;45331;-74
2023/06/01 00:19:20;;;;;;;;;26.00;21.67;;;;;16.66;70.26;101914.88;5080719;27;46452;-75
2023/06/01 00:21:46;;;;;;;;;25.67;21.33;;;;;16.69;69.55;101917.44;5080584;27;45395;-75
2023/06/01 00:24:11;;;;;;;;;34.67;23.67;;;;;16.69;69.55;101920.13;5080232;27;45274;-73
2023/06/01 00:26:36;;;;;;;;;28.67;24.67;;;;;16.67;69.98;101922.81;5080763;27;45273;-75
2023/06/01 00:29:02;;;;;;;;;24.00;24.00;;;;;16.55;70.10;101899.22;5080349;27;46623;-75
2023/06/01 00:31:27;;;;;;;;;25.33;20.33;;;;;16.59;69.70;101913.31;5080515;27;45361;-75
2023/06/01 00:33:52;;;;;;;;;22.67;19.67;;;;;16.60;70.21;101920.34;5080584;27;45402;-75
2023/06/01 00:36:19;;;;;;;;;28.00;24.67;;;;;16.52;69.90;101907.31;5080528;27;45226;-75
2023/06/01 00:38:44;;;;;;;;;31.67;25.33;;;;;16.50;70.91;101920.63;5079885;27;47416;-76
2023/06/01 00:41:10;;;;;;;;;16.67;11.33;;;;;16.44;70.53;101923.47;5080061;27;45246;-75
2023/06/01 00:43:35;;;;;;;;;25.67;21.67;;;;;16.41;71.05;101917.38;5080522;27;45225;-75
2023/06/01 00:46:00;;;;;;;;;25.00;23.33;;;;;16.43;70.55;101913.75;5080108;27;45451;-75
2023/06/01 00:48:26;;;;;;;;;30.67;25.33;;;;;16.40;70.51;101911.19;5080047;27;46346;-73
2023/06/01 00:50:52;;;;;;;;;31.67;26.67;;;;;16.37;70.77;101913.94;5080106;27;45276;-73
2023/06/01 00:53:21;;;;;;;;;35.00;29.00;;;;;16.40;71.38;101927.13;5080183;27;45231;-76
2023/06/01 00:55:47;;;;;;;;;30.00;27.00;;;;;16.39;71.16;101932.50;5080382;27;45586;-75
2023/06/01 00:58:14;;;;;;;;;24.33;22.67;;;;;16.37;70.52;101924.56;5079907;27;47278;-76
2023/06/01 01:00:41;;;;;;;;;31.33;26.00;;;;;16.34;71.13;101925.53;5078780;27;45506;-76
2023/06/01 01:03:09;;;;;;;;;32.00;23.67;;;;;16.31;71.16;101922.09;5081706;27;45265;-75
2023/06/01 01:05:36;;;;;;;;;32.33;27.33;;;;;16.34;71.65;101929.97;5079866;27;45670;-75
2023/06/01 01:08:07;;;;;;;;;29.33;26.67;;;;;16.32;70.88;101926.47;5079377;27;46047;-74
2023/06/01 01:10:39;;;;;;;;;30.33;27.00;;;;;16.28;71.17;101922.16;5078244;27;45774;-75
2023/06/01 01:13:05;;;;;;;;;24.67;22.33;;;;;16.29;71.19;101926.56;5079307;27;45310;-75
2023/06/01 01:15:47;;;;;;;;;34.00;26.33;;;;;16.23;71.05;101927.59;5079431;27;45497;-74
2023/06/01 01:18:19;;;;;;;;;26.67;23.67;;;;;16.23;70.47;101924.94;5079736;27;45510;-75
2023/06/01 01:20:51;;;;;;;;;25.33;25.33;;;;;16.18;71.88;101919.75;5079485;27;45459;-75
2023/06/01 01:23:38;;;;;;;;;24.33;20.67;;;;;16.14;71.38;101920.75;5079476;27;45437;-75
2023/06/01 01:26:46;;;;;;;;;25.33;23.67;;;;;16.13;71.40;101921.66;5079582;28;45506;-75
2023/06/01 01:29:14;;;;;;;;;32.33;29.00;;;;;16.10;72.16;101918.22;5079107;28;46666;-75
2023/06/01 01:31:40;;;;;;;;;30.67;28.00;;;;;16.05;72.06;101918.34;5078741;27;45467;-77
2023/06/01 01:34:08;;;;;;;;;30.67;25.00;;;;;16.05;72.43;101922.78;5079604;27;45360;-77
2023/06/01 01:36:35;;;;;;;;;34.33;31.00;;;;;16.02;72.34;101907.81;5079783;27;45448;-76
2023/06/01 01:39:01;;;;;;;;;39.33;27.33;;;;;15.99;72.75;101913.22;5079078;27;46225;-75
2023/06/01 01:41:27;;;;;;;;;31.67;30.00;;;;;16.01;72.47;101917.53;5078913;27;45598;-74
2023/06/01 01:43:53;;;;;;;;;33.00;29.00;;;;;16.04;72.67;101923.72;5079448;27;45614;-75
2023/06/01 01:46:27;;;;;;;;;33.33;22.67;;;;;16.02;72.43;101921.97;5079395;27;45341;-76
2023/06/01 01:48:55;;;;;;;;;38.67;29.33;;;;;16.02;72.10;101929.94;5079273;27;45368;-79
2023/06/01 01:51:33;;;;;;;;;28.67;25.00;;;;;16.00;72.05;101937.06;5079058;27;45241;-79
2023/06/01 01:54:00;;;;;;;;;34.33;31.00;;;;;15.76;72.94;101892.53;5079113;27;45625;-80
2023/06/01 01:56:26;;;;;;;;;35.00;29.67;;;;;15.92;72.10;101925.78;5079045;27;45535;-77
2023/06/01 01:58:53;;;;;;;;;35.67;29.67;;;;;15.93;72.28;101924.88;5078914;27;46197;-78
2023/06/01 02:01:20;;;;;;;;;35.00;30.33;;;;;15.90;72.34;101929.38;5079010;27;45403;-79
2023/06/01 02:03:45;;;;;;;;;31.33;29.33;;;;;15.87;72.40;101922.34;5078773;27;45261;-79
2023/06/01 02:06:10;;;;;;;;;29.00;29.00;;;;;15.86;72.31;101925.94;5078446;27;45189;-77
2023/06/01 02:08:36;;;;;;;;;34.67;30.67;;;;;15.83;72.78;101926.88;5078951;27;47366;-77
2023/06/01 02:11:01;;;;;;;;;43.33;36.33;;;;;15.58;72.99;101878.81;5078587;27;45187;-80
2023/06/01 02:13:26;;;;;;;;;30.33;30.33;;;;;15.72;73.40;101905.00;5078740;27;45376;-78
2023/06/01 02:15:51;;;;;;;;;40.00;34.33;;;;;15.70;73.28;101908.59;5079235;27;45329;-77
2023/06/01 02:18:17;;;;;;;;;38.00;33.00;;;;;15.72;73.11;101902.34;5078644;27;47598;-77
2023/06/01 02:20:43;;;;;;;;;33.33;28.67;;;;;15.71;72.79;101908.56;5079031;27;45368;-78
2023/06/01 02:23:09;;;;;;;;;38.33;32.00;;;;;15.70;73.02;101911.25;5078616;28;45504;-79
2023/06/01 02:25:34;;;;;;;;;33.67;31.33;;;;;15.36;73.70;101854.59;5078594;27;45368;-78
2023/06/01 02:28:00;;;;;;;;;34.33;26.33;;;;;15.60;73.19;101902.69;5078776;28;45462;-81
2023/06/01 02:30:25;;;;;;;;;43.00;31.33;;;;;15.54;73.16;101895.72;5078514;27;45312;-75
2023/06/01 02:32:51;;;;;;;;;35.00;34.00;;;;;15.60;73.24;101914.16;5078662;27;45300;-75
2023/06/01 02:35:16;;;;;;;;;39.33;34.67;;;;;15.62;73.76;101912.31;5078434;27;45314;-76
2023/06/01 02:37:41;;;;;;;;;37.00;30.33;;;;;15.58;73.53;101912.44;5078201;27;47390;-76
2023/06/01 02:40:11;;;;;;;;;41.00;32.67;;;;;15.57;73.31;101911.59;5078494;27;45372;-76
2023/06/01 02:42:38;;;;;;;;;27.67;24.67;;;;;15.54;72.93;101909.00;5078596;27;45285;-77
2023/06/01 02:45:05;;;;;;;;;39.33;35.33;;;;;15.48;73.71;101899.41;5078693;27;45273;-77
2023/06/01 02:47:30;;;;;;;;;37.33;34.67;;;;;15.53;73.68;101904.59;5078105;27;45308;-77
2023/06/01 02:49:55;;;;;;;;;36.67;33.67;;;;;15.50;73.50;101900.22;5078217;27;45404;-77
2023/06/01 02:52:20;;;;;;;;;43.00;33.67;;;;;15.49;73.99;101908.22;5078571;27;45405;-75
2023/06/01 02:54:46;;;;;;;;;38.00;33.00;;;;;15.41;74.11;101891.63;5078407;27;45362;-76
2023/06/01 02:57:11;;;;;;;;;37.67;31.00;;;;;15.46;73.48;101897.69;5078378;27;46285;-77
2023/06/01 02:59:36;;;;;;;;;42.67;33.67;;;;;15.40;73.38;101892.56;5078072;27;45435;-75
2023/06/01 03:02:02;;;;;;;;;35.00;29.33;;;;;15.47;73.57;101907.41;5078248;27;45348;-75
2023/06/01 03:04:28;;;;;;;;;44.00;36.50;;;;;15.47;74.01;101912.72;5078295;27;45417;-75
2023/06/01 03:06:54;;;;;;;;;38.33;33.00;;;;;15.38;73.38;101897.91;5077269;27;46470;-76
2023/06/01 03:09:19;;;;;;;;;42.67;35.00;;;;;15.44;73.27;101903.03;5077825;27;45364;-76
2023/06/01 03:11:45;;;;;;;;;40.33;34.33;;;;;15.41;73.60;101908.44;5077769;27;45746;-74
2023/06/01 03:14:10;;;;;;;;;40.33;34.33;;;;;15.36;73.42;101906.78;5078048;27;45414;-75
2023/06/01 03:16:35;;;;;;;;;41.00;34.33;;;;;15.29;74.19;101911.38;5077918;27;46237;-76
2023/06/01 03:19:01;;;;;;;;;40.00;35.33;;;;;15.29;73.04;101914.03;5076677;27;45431;-77
2023/06/01 03:21:27;;;;;;;;;43.00;35.67;;;;;15.13;73.59;101901.13;5077210;27;45498;-75
2023/06/01 03:23:52;;;;;;;;;50.67;38.00;;;;;15.23;74.34;101919.47;5077957;27;45536;-75
2023/06/01 03:26:20;;;;;;;;;45.33;37.67;;;;;15.14;73.60;101902.84;5077303;27;46467;-74
2023/06/01 03:28:46;;;;;;;;;46.33;36.33;;;;;15.16;74.39;101908.13;5077923;27;45366;-75
2023/06/01 03:31:11;;;;;;;;;42.33;35.00;;;;;15.18;73.91;101910.78;5077414;27;45442;-76
2023/06/01 03:33:37;;;;;;;;;40.00;33.67;;;;;15.20;74.03;101916.91;5077989;27;45305;-74
2023/06/01 03:36:04;;;;;;;;;42.67;35.00;;;;;15.17;74.07;101920.50;5077388;27;46118;-76
2023/06/01 03:38:29;;;;;;;;;47.00;39.00;;;;;15.13;74.12;101919.72;5077153;27;46759;-75
2023/06/01 03:40:55;;;;;;;;;47.67;36.33;;;;;15.11;73.73;101915.34;5077494;27;45376;-75
2023/06/01 03:43:20;;;;;;;;;50.33;40.33;;;;;15.14;73.82;101929.38;5077660;27;45433;-75
2023/06/01 03:45:46;;;;;;;;;53.00;40.67;;;;;15.08;74.25;101918.06;5077400;27;46931;-75
2023/06/01 03:48:11;;;;;;;;;47.67;40.67;;;;;15.09;74.31;101925.13;5077446;27;45273;-76
2023/06/01 03:50:36;;;;;;;;;49.67;38.67;;;;;14.96;74.64;101901.50;5077395;27;45398;-75
2023/06/01 03:53:02;;;;;;;;;53.67;42.33;;;;;15.09;74.02;101923.31;5076970;27;45398;-75
2023/06/01 03:55:29;;;;;;;;;52.67;41.00;;;;;15.14;74.20;101934.69;5076738;27;46211;-78
2023/06/01 03:57:54;;;;;;;;;52.00;39.33;;;;;15.11;73.60;101918.00;5077196;27;45576;-77
2023/06/01 04:00:20;;;;;;;;;55.00;42.00;;;;;15.19;73.78;101931.06;5077424;27;45509;-77
2023/06/01 04:02:56;;;;;;;;;54.67;42.00;;;;;15.18;73.63;101937.31;5076971;27;45478;-76
2023/06/01 04:05:24;;;;;;;;;50.33;41.67;;;;;14.96;73.79;101892.69;5077436;27;46234;-77
2023/06/01 04:07:51;;;;;;;;;52.00;40.00;;;;;15.24;74.18;101930.06;5076963;27;45422;-75
2023/06/01 04:10:16;;;;;;;;;47.67;37.33;;;;;15.21;73.60;101919.50;5076743;27;45286;-75
2023/06/01 04:12:44;;;;;;;;;48.33;38.00;;;;;15.29;73.56;101944.09;5077200;27;45365;-75
2023/06/01 04:15:10;;;;;;;;;54.33;42.67;;;;;15.32;73.16;101941.38;5076901;27;47159;-75
2023/06/01 04:17:37;;;;;;;;;53.67;42.00;;;;;15.33;73.43;101942.22;5076844;27;45319;-74
2023/06/01 04:20:06;;;;;;;;;52.67;42.33;;;;;15.32;73.23;101932.53;5076770;28;45332;-75
2023/06/01 04:22:32;;;;;;;;;50.67;42.00;;;;;15.32;73.61;101940.47;5077180;27;45506;-75
2023/06/01 04:24:57;;;;;;;;;52.33;42.00;;;;;15.28;73.13;101950.31;5076960;27;45447;-76
2023/06/01 04:27:24;;;;;;;;;55.67;45.33;;;;;15.20;73.83;101941.63;5076486;27;45273;-76
2023/06/01 04:29:50;;;;;;;;;55.33;42.33;;;;;15.23;73.96;101940.72;5078116;28;45300;-77
2023/06/01 04:32:21;;;;;;;;;57.00;42.67;;;;;15.23;73.53;101938.06;5080826;27;45400;-76
2023/06/01 04:34:49;;;;;;;;;50.33;42.33;;;;;15.31;73.34;101944.94;5080312;27;46728;-77
2023/06/01 04:37:15;;;;;;;;;58.67;43.67;;;;;15.34;73.06;101941.34;5079889;27;45592;-76
2023/06/01 04:39:42;;;;;;;;;61.67;46.33;;;;;15.39;72.91;101949.19;5080635;27;45411;-76
2023/06/01 04:42:08;;;;;;;;;53.33;43.33;;;;;15.34;73.33;101951.09;5080320;27;45270;-75
2023/06/01 04:44:34;;;;;;;;;51.33;42.33;;;;;15.36;73.37;101947.47;5079996;27;46719;-76
2023/06/01 04:47:03;;;;;;;;;55.33;42.67;;;;;15.42;73.07;101957.06;5079798;27;45338;-76
2023/06/01 04:49:29;;;;;;;;;53.33;43.67;;;;;15.40;72.80;101951.78;5080135;27;45280;-75
2023/06/01 04:51:54;;;;;;;;;52.00;43.33;;;;;15.40;73.16;101949.16;5080390;27;45871;-75
2023/06/01 04:54:19;;;;;;;;;50.00;41.67;;;;;15.51;72.73;101964.84;5079795;27;46509;-75
2023/06/01 04:56:44;;;;;;;;;55.67;44.00;;;;;15.55;72.14;101963.81;5079665;27;45378;-78
2023/06/01 04:59:10;;;;;;;;;57.33;45.67;;;;;15.52;72.42;101944.47;5080234;27;45290;-75
2023/06/01 05:01:38;;;;;;;;;53.33;43.33;;;;;15.60;71.95;101961.09;5080162;27;45315;-74
2023/06/01 05:04:03;;;;;;;;;55.67;44.33;;;;;15.64;71.88;101965.38;5079920;27;47109;-74
2023/06/01 05:06:29;;;;;;;;;54.00;43.33;;;;;15.57;71.55;101953.16;5079440;27;45434;-74
2023/06/01 05:08:54;;;;;;;;;53.00;43.33;;;;;15.61;72.09;101971.66;5080281;27;45458;-75
2023/06/01 05:11:21;;;;;;;;;61.33;49.33;;;;;15.58;71.87;101958.47;5079927;27;45334;-75
2023/06/01 05:13:47;;;;;;;;;57.00;43.67;;;;;15.68;71.65;101972.38;5079107;27;46238;-75
2023/06/01 05:16:12;;;;;;;;;65.75;52.75;;;;;15.47;71.35;101928.66;5079723;27;45279;-76
2023/06/01 05:18:38;;;;;;;;;57.67;47.33;;;;;15.75;71.28;101962.47;5079424;27;45559;-72
2023/06/01 05:21:03;;;;;;;;;63.33;49.67;;;;;15.71;71.57;101958.16;5078914;27;45443;-77
2023/06/01 05:23:29;;;;;;;;;65.67;48.67;;;;;15.69;71.31;101946.72;5079204;27;45463;-77
2023/06/01 05:26:05;;;;;;;;;62.00;49.33;;;;;15.77;71.32;101956.22;5078776;27;45479;-79
2023/06/01 05:28:32;;;;;;;;;69.25;52.00;;;;;15.83;71.31;101960.53;5079771;27;45365;-77
2023/06/01 05:30:58;;;;;;;;;69.33;51.67;;;;;15.80;71.44;101949.97;5079821;27;45384;-77
2023/06/01 05:33:23;;;;;;;;;71.00;51.33;;;;;15.83;70.66;101960.53;5078856;27;46108;-78
2023/06/01 05:35:49;;;;;;;;;69.00;52.33;;;;;15.92;70.79;101960.31;5079565;27;45303;-78
2023/06/01 05:38:14;;;;;;;;;66.33;52.00;;;;;15.94;70.29;101962.91;5079171;27;45368;-77
2023/06/01 05:40:40;;;;;;;;;69.50;52.00;;;;;15.91;70.39;101963.88;5078518;27;45447;-78
2023/06/01 05:43:06;;;;;;;;;65.33;50.33;;;;;15.91;70.27;101958.56;5078552;27;45574;-76
2023/06/01 05:45:32;;;;;;;;;70.00;51.67;;;;;15.88;69.92;101958.63;5078535;28;45343;-78
2023/06/01 05:47:57;;;;;;;;;75.75;55.50;;;;;15.92;70.93;101970.94;5078727;27;45250;-79
2023/06/01 05:50:22;;;;;;;;;73.33;55.33;;;;;15.96;71.01;101967.28;5079317;27;45295;-76
2023/06/01 05:52:48;;;;;;;;;74.25;55.00;;;;;16.06;69.75;101965.28;5079150;27;45466;-78
2023/06/01 05:55:13;;;;;;;;;70.33;51.33;;;;;16.12;70.08;101964.22;5079265;27;45372;-78
2023/06/01 05:57:39;;;;;;;;;72.50;55.00;;;;;16.18;69.75;101970.25;5079005;27;45273;-77
2023/06/01 06:00:12;;;;;;;;;74.50;54.25;;;;;16.13;68.86;101961.50;5078864;27;45426;-77
2023/06/01 06:02:38;;;;;;;;;77.00;52.75;;;;;16.19;69.65;101965.78;5077839;27;46573;-77
2023/06/01 06:05:04;;;;;;;;;72.50;57.50;;;;;16.27;69.43;101977.09;5078535;27;45726;-77
2023/06/01 06:07:30;;;;;;;;;78.00;58.00;;;;;16.32;68.93;101969.00;5078434;28;45506;-78
2023/06/01 06:09:55;;;;;;;;;56.00;39.50;;;;;16.40;68.63;101967.00;5079352;27;45358;-79
2023/06/01 06:12:21;;;;;;;;;70.25;52.00;;;;;16.39;69.29;101964.41;5078173;27;45488;-77
2023/06/01 06:14:47;;;;;;;;;70.50;54.25;;;;;16.40;68.39;101964.34;5078706;27;45897;-80
2023/06/01 06:17:12;;;;;;;;;72.25;53.00;;;;;16.34;68.43;101961.88;5078739;27;45337;-77
2023/06/01 06:19:38;;;;;;;;;71.50;53.00;;;;;16.39;68.67;101970.56;5078980;27;45375;-76
2023/06/01 06:22:04;;;;;;;;;65.75;50.50;;;;;16.40;68.29;101974.13;5078601;27;47469;-78
2023/06/01 06:24:29;;;;;;;;;71.75;51.50;;;;;16.25;68.30;101939.06;5078682;27;45435;-76
2023/06/01 06:26:55;;;;;;;;;70.50;53.00;;;;;16.53;68.00;101964.88;5078279;27;45383;-78
2023/06/01 06:29:20;;;;;;;;;69.25;50.25;;;;;16.59;67.29;101978.00;5078843;27;45356;-77
2023/06/01 06:31:45;;;;;;;;;67.25;51.75;;;;;16.52;66.83;101957.81;5078586;27;46165;-79
2023/06/01 06:34:12;;;;;;;;;70.75;52.75;;;;;16.62;66.80;101977.06;5078467;27;45165;-78
2023/06/01 06:36:38;;;;;;;;;67.00;48.00;;;;;16.58;66.95;101978.91;5078591;27;45242;-78
2023/06/01 06:39:03;;;;;;;;;70.25;52.75;;;;;16.59;67.16;101980.66;5078509;27;45221;-78
2023/06/01 06:41:29;;;;;;;;;66.75;51.00;;;;;16.65;66.73;101985.78;5078059;27;46034;-77
2023/06/01 06:43:54;;;;;;;;;68.67;49.00;;;;;16.69;66.68;101982.13;5078407;27;45307;-77
2023/06/01 06:46:19;;;;;;;;;64.33;48.33;;;;;16.61;66.43;101972.63;5078421;27;45368;-81
2023/06/01 06:48:45;;;;;;;;;51.00;38.33;;;;;16.59;66.51;101982.47;5078714;27;45330;-80
2023/06/01 06:51:10;;;;;;;;;61.33;43.67;;;;;16.58;66.34;101986.03;5077819;27;46444;-78
2023/06/01 06:53:35;;;;;;;;;69.25;50.50;;;;;16.61;66.06;101981.47;5078048;27;45410;-80
2023/06/01 06:56:02;;;;;;;;;53.67;43.00;;;;;16.66;66.42;101986.69;5077041;28;45457;-76
2023/06/01 06:58:28;;;;;;;;;52.33;43.33;;;;;16.65;66.25;101979.63;5078703;27;45408;-77
2023/06/01 07:00:53;;;;;;;;;54.33;42.33;;;;;16.68;66.20;101972.41;5063525;27;47089;-78
2023/06/01 07:03:18;;;;;;;;;50.33;42.67;;;;;16.84;65.53;101980.81;5058774;28;45390;-76
2023/06/01 07:05:45;;;;;;;;;54.33;41.67;;;;;17.03;65.06;101978.53;5078035;27;45281;-76
2023/06/01 07:08:10;;;;;;;;;52.00;41.00;;;;;17.19;64.46;101976.28;5078027;27;45384;-77
2023/06/01 07:10:36;;;;;;;;;55.33;43.00;;;;;17.31;63.71;101983.00;5076396;27;45446;-77
2023/06/01 07:13:01;;;;;;;;;59.67;45.67;;;;;17.31;63.81;101988.34;5077465;27;45642;-77
2023/06/01 07:15:27;;;;;;;;;56.33;44.33;;;;;17.38;63.36;101989.91;5077883;27;45750;-77
2023/06/01 07:17:52;;;;;;;;;57.33;43.33;;;;;17.42;63.17;101990.66;5077966;27;45364;-77
2023/06/01 07:20:17;;;;;;;;;52.00;43.00;;;;;17.46;62.47;101986.13;5077669;27;46294;-77
2023/06/01 07:22:43;;;;;;;;;59.67;44.67;;;;;17.51;62.73;102001.00;5077723;27;45167;-79
2023/06/01 07:25:09;;;;;;;;;53.33;39.33;;;;;17.53;62.54;101990.31;5077855;27;45329;-79
2023/06/01 07:27:36;;;;;;;;;53.33;42.33;;;;;17.51;62.44;101977.03;5077627;27;45395;-76
2023/06/01 07:30:03;;;;;;;;;48.67;38.67;;;;;17.56;61.97;101976.91;5076075;28;46655;-78
2023/06/01 07:32:28;;;;;;;;;47.67;37.33;;;;;17.57;62.82;101986.63;5077467;27;45247;-77
2023/06/01 07:34:57;;;;;;;;;50.00;36.67;;;;;17.63;61.99;101989.13;5076099;28;45446;-77
2023/06/01 07:37:23;;;;;;;;;44.00;36.00;;;;;17.72;61.59;101988.78;5077567;27;45516;-78
2023/06/01 07:39:49;;;;;;;;;47.00;37.67;;;;;17.77;61.17;101990.44;5077512;27;45909;-77
2023/06/01 07:42:15;;;;;;;;;44.00;35.33;;;;;17.81;60.85;101976.09;5077194;27;45221;-78
2023/06/01 07:44:40;;;;;;;;;48.00;36.00;;;;;17.91;61.05;101989.09;5077790;27;45271;-78
2023/06/01 07:47:06;;;;;;;;;50.00;39.00;;;;;17.90;60.88;101979.34;5077393;27;45286;-79
2023/06/01 07:49:35;;;;;;;;;49.33;37.33;;;;;17.99;60.58;101985.28;5076973;27;47406;-76
2023/06/01 07:52:00;;;;;;;;;43.33;35.67;;;;;18.00;60.28;101981.72;5077179;27;45328;-78
2023/06/01 07:54:26;;;;;;;;;48.67;37.00;;;;;18.10;60.33;101993.81;5077229;27;45233;-76
2023/06/01 07:56:51;;;;;;;;;39.00;34.67;;;;;18.08;60.19;101972.53;5077435;27;45205;-75
2023/06/01 07:59:16;;;;;;;;;49.67;38.00;;;;;18.19;59.51;101981.94;5077014;27;46003;-77
2023/06/01 08:01:42;;;;;;;;;42.33;35.67;;;;;18.35;59.11;101991.13;5077036;27;45431;-78
2023/06/01 08:04:08;;;;;;;;;49.33;37.67;;;;;18.43;58.82;101988.22;5077320;27;45208;-79
2023/06/01 08:06:35;;;;;;;;;48.33;37.67;;;;;18.57;58.58;101993.94;5080915;27;45320;-76
2023/06/01 08:09:04;;;;;;;;;49.33;37.00;;;;;18.69;58.44;101976.59;5080566;27;46434;-79
2023/06/01 08:11:29;;;;;;;;;52.33;42.33;;;;;18.98;57.23;101977.31;5080392;27;45502;-78
2023/06/01 08:13:55;;;;;;;;;48.00;34.67;;;;;19.09;56.76;101976.91;5080484;27;45347;-77
2023/06/01 08:16:20;;;;;;;;;45.67;38.00;;;;;19.21;57.10;101983.56;5081116;27;45324;-77
2023/06/01 08:18:46;;;;;;;;;42.33;32.67;;;;;19.30;56.38;101988.53;5080441;27;46608;-78
2023/06/01 08:21:11;;;;;;;;;39.67;34.00;;;;;19.41;56.57;101980.97;5080594;27;45451;-77
2023/06/01 08:23:37;;;;;;;;;47.00;33.67;;;;;19.49;55.75;101975.31;5080500;27;45441;-77
2023/06/01 08:26:02;;;;;;;;;39.67;33.67;;;;;19.57;56.42;101985.69;5080570;27;45479;-77
2023/06/01 08:28:27;;;;;;;;;47.33;34.67;;;;;19.55;55.40;101960.84;5080288;27;45916;-77
2023/06/01 08:30:53;;;;;;;;;46.67;36.67;;;;;19.80;55.44;101971.41;5080384;28;45502;-76
2023/06/01 08:33:18;;;;;;;;;47.33;35.33;;;;;19.87;55.31;101962.19;5080639;27;45221;-75
2023/06/01 08:35:43;;;;;;;;;44.00;33.67;;;;;19.89;54.26;101959.47;5080563;27;45439;-78
2023/06/01 08:38:09;;;;;;;;;41.33;32.67;;;;;20.02;54.21;101971.34;5080076;27;45246;-77
2023/06/01 08:40:35;;;;;;;;;49.00;38.67;;;;;20.20;54.36;101983.09;5080539;27;45463;-76
2023/06/01 08:43:17;;;;;;;;;48.00;34.67;;;;;20.37;53.99;101982.31;5080324;28;45359;-76
2023/06/01 08:45:44;;;;;;;;;44.67;33.67;;;;;20.43;53.60;101981.19;5080201;28;45407;-77
2023/06/01 08:48:17;;;;;;;;;48.67;39.00;;;;;20.45;53.58;101961.47;5078900;27;46204;-76
2023/06/01 08:50:47;;;;;;;;;48.67;38.33;;;;;20.46;53.06;101967.66;5080062;27;45249;-76
2023/06/01 08:53:13;;;;;;;;;47.67;37.67;;;;;20.49;52.90;101970.19;5079771;27;45337;-77
2023/06/01 08:55:40;;;;;;;;;47.67;40.00;;;;;20.46;53.20;101962.31;5080317;27;45375;-76
2023/06/01 08:58:05;;;;;;;;;52.67;40.67;;;;;20.65;52.65;101957.88;5079538;27;45449;-79
2023/06/01 09:00:32;;;;;;;;;49.33;38.00;;;;;21.64;51.58;101953.22;5079270;27;45302;-77
2023/06/01 09:02:58;;;;;;;;;49.33;36.67;;;;;21.81;51.01;101938.94;5079964;27;45255;-77
2023/06/01 09:05:24;;;;;;;;;49.67;40.67;;;;;21.82;50.05;101959.47;5079917;27;45250;-79
2023/06/01 09:07:49;;;;;;;;;49.33;37.33;;;;;21.58;50.32;101963.38;5079384;27;46198;-77
2023/06/01 09:10:15;;;;;;;;;49.67;39.00;;;;;21.45;50.43;101960.41;5079594;27;45392;-77
2023/06/01 09:12:52;;;;;;;;;49.67;35.67;;;;;21.52;51.12;101970.78;5079137;27;45512;-79
2023/06/01 09:15:19;;;;;;;;;47.00;34.33;;;;;21.72;50.20;101963.56;5079811;27;45606;-78
2023/06/01 09:17:52;;;;;;;;;46.33;36.00;;;;;21.66;49.78;101953.16;5078320;27;45305;-77
2023/06/01 09:20:31;;;;;;;;;41.00;34.33;;;;;21.53;50.62;101948.38;5078994;27;45449;-78
2023/06/01 09:22:57;;;;;;;;;41.67;35.33;;;;;21.37;50.72;101958.09;5079616;27;45451;-76
2023/06/01 09:25:31;;;;;;;;;34.33;30.00;;;;;21.15;50.78;101937.72;5078192;27;45414;-77
2023/06/01 09:27:58;;;;;;;;;33.67;30.00;;;;;21.13;51.02;101955.69;5079123;27;46882;-78
2023/06/01 09:30:26;;;;;;;;;38.00;31.67;;;;;21.11;50.64;101930.75;5079301;28;45455;-79
2023/06/01 09:33:14;;;;;;;;;39.67;34.00;;;;;21.26;51.17;101945.25;5079560;27;45433;-79
2023/06/01 09:35:49;;;;;;;;;44.00;34.00;;;;;21.48;51.34;101947.72;5079471;27;45424;-79
2023/06/01 09:38:25;;;;;;;;;37.33;31.00;;;;;22.38;50.71;101945.88;5079259;27;46401;-78
2023/06/01 09:40:58;;;;;;;;;35.33;31.00;;;;;24.26;47.59;101948.63;5079183;27;45367;-78
2023/06/01 09:43:25;;;;;;;;;34.67;30.67;;;;;26.61;44.31;101932.28;5079245;27;45368;-78
2023/06/01 09:46:13;;;;;;;;;37.33;30.33;;;;;29.18;41.83;101944.97;5079468;27;45413;-77
2023/06/01 09:48:39;;;;;;;;;29.33;29.00;;;;;31.17;36.83;101934.19;5078582;27;46476;-78
2023/06/01 09:51:20;;;;;;;;;31.00;28.00;;;;;32.88;34.89;101934.28;5079084;27;45187;-78
2023/06/01 09:53:45;;;;;;;;;30.67;29.00;;;;;34.62;31.54;101936.53;5079263;27;45385;-77
2023/06/01 09:56:11;;;;;;;;;35.00;28.33;;;;;35.83;30.48;101927.03;5079511;27;45317;-77
2023/06/01 09:58:39;;;;;;;;;32.33;29.00;;;;;37.10;28.64;101927.94;5078794;27;46319;-75
2023/06/01 10:01:08;;;;;;;;;33.33;28.00;;;;;38.25;27.14;101937.09;5079290;27;45213;-78
2023/06/01 10:03:34;;;;;;;;;31.00;27.67;;;;;39.04;26.09;101921.78;5079046;27;45254;-77
2023/06/01 10:06:00;;;;;;;;;27.00;25.67;;;;;39.90;25.33;101931.03;5079229;27;45347;-79
2023/06/01 10:08:26;;;;;;;;;28.33;26.67;;;;;40.67;24.73;101927.25;5078710;27;46612;-78
2023/06/01 10:10:51;;;;;;;;;27.67;27.33;;;;;41.17;22.10;101924.19;5078543;27;45313;-78
2023/06/01 10:13:17;;;;;;;;;33.25;29.25;;;;;41.19;22.94;101905.50;5079076;27;45362;-78
2023/06/01 10:15:42;;;;;;;;;29.00;27.75;;;;;41.75;22.51;101919.97;5079013;27;45256;-78
2023/06/01 10:18:08;;;;;;;;;28.25;27.00;;;;;42.13;21.89;101918.44;5078730;27;46647;-79
2023/06/01 10:20:35;;;;;;;;;25.75;25.75;;;;;42.36;21.49;101916.03;5078901;27;45396;-78
2023/06/01 10:23:02;;;;;;;;;26.50;25.00;;;;;42.54;20.64;101906.16;5078803;27;45377;-79
2023/06/01 10:25:49;;;;;;;;;24.75;20.75;;;;;42.85;23.41;101912.84;5078985;27;45561;-79
2023/06/01 10:28:17;;;;;;;;;30.25;27.25;;;;;42.75;20.22;101916.94;5078045;27;46298;-79
2023/06/01 10:30:42;;;;;;;;;28.50;27.50;;;;;42.72;20.98;101909.06;5078451;27;45249;-79
2023/06/01 10:33:07;;;;;;;;;30.50;25.50;;;;;42.67;19.91;101903.38;5078595;27;45406;-80
2023/06/01 10:35:42;;;;;;;;;26.50;25.00;;;;;42.91;20.60;101907.25;5078896;27;45408;-79
2023/06/01 10:38:12;;;;;;;;;28.00;27.75;;;;;43.05;19.65;101907.19;5078432;28;45474;-80
2023/06/01 10:40:38;;;;;;;;;31.75;29.50;;;;;43.04;20.33;101897.19;5078362;27;45321;-81
2023/06/01 10:43:04;;;;;;;;;27.75;26.25;;;;;43.01;19.56;101897.59;5078477;27;45372;-76
2023/06/01 10:45:40;;;;;;;;;27.25;24.00;;;;;42.87;20.37;101885.75;5078559;27;45431;-76
2023/06/01 10:48:12;;;;;;;;;25.75;25.75;;;;;42.59;19.82;101898.03;5078008;27;46448;-76
2023/06/01 10:50:39;;;;;;;;;26.50;25.25;;;;;42.55;19.58;101885.69;5078246;27;45474;-77
2023/06/01 10:53:23;;;;;;;;;27.25;27.25;;;;;42.12;20.75;101876.09;5078289;28;45466;-77
2023/06/01 10:56:22;;;;;;;;;34.00;29.00;;;;;41.45;20.45;101884.50;5078378;27;45725;-78
2023/06/01 10:59:07;;;;;;;;;31.75;29.25;;;;;40.46;21.30;101885.97;5077905;27;45953;-77
2023/06/01 11:01:40;;;;;;;;;28.50;25.75;;;;;39.26;21.37;101866.72;5055562;28;45503;-78
2023/06/01 11:04:07;;;;;;;;;30.25;29.00;;;;;38.05;22.07;101879.03;5055675;28;45575;-76
2023/06/01 11:06:39;;;;;;;;;31.25;28.50;;;;;37.06;22.60;101876.28;5055716;28;45451;-77
2023/06/01 11:09:06;;;;;;;;;29.25;28.00;;;;;35.93;23.89;101858.31;5055518;28;46036;-79
2023/06/01 11:11:52;;;;;;;;;31.50;28.25;;;;;34.95;24.44;101876.47;5037993;28;45503;-78